sensor_id;sensor_type;location;lat;lon;timestamp;temperature;humidity
13205;DHT22;6667;52.634;9.226;2022-12-18T07:45:42;-9.70;1.00
13205;DHT22;6667;52.634;9.226;2022-12-18T07:48:09;-9.70;1.00
13205;DHT22;6667;52.634;9.226;2022-12-18T07:50:36;-9.60;1.00
13205;DHT22;6667;52.634;9.226;2022-12-18T07:53:03;-9.60;99.90
13205;DHT22;6667;52.634;9.226;2022-12-18T07:55:30;-9.60;99.90
13205;DHT22;6667;52.634;9.226;2022-12-18T07:58:00;-9.60;99.90
13205;DHT22;6667;52.634;9.226;2022-12-18T08:00:27;-9.50;99.90
13205;DHT22;6667;52.634;9.226;2022-12-18T08:02:55;-9.50;99.90
13205;DHT22;6667;52.634;9.226;2022-12-18T08:05:22;-9.50;99.90
13205;DHT22;6667;52.634;9.226;2022-12-18T08:07:49;-9.40;1.00
13205;DHT22;6667;52.634;9.226;2022-12-18T08:10:16;-9.40;99.90
13205;DHT22;6667;52.634;9.226;2022-12-18T08:12:42;-9.40;99.90
13205;DHT22;6667;52.634;9.226;2022-12-18T08:15:09;-9.40;99.90
13205;DHT22;6667;52.634;9.226;2022-12-18T08:17:36;-9.30;99.90
13205;DHT22;6667;52.634;9.226;2022-12-18T08:20:05;-9.40;99.90
13205;DHT22;6667;52.634;9.226;2022-12-18T08:22:33;-9.40;99.90
13205;DHT22;6667;52.634;9.226;2022-12-18T08:25:00;-9.40;99.90
13205;DHT22;6667;52.634;9.226;2022-12-18T08:27:27;-9.40;99.90
13205;DHT22;6667;52.634;9.226;2022-12-18T08:29:54;-9.30;99.90
13205;DHT22;6667;52.634;9.226;2022-12-18T08:32:20;-9.30;1.00
13205;DHT22;6667;52.634;9.226;2022-12-18T08:34:47;-9.30;1.00
13205;DHT22;6667;52.634;9.226;2022-12-18T08:37:15;-9.20;1.00
13205;DHT22;6667;52.634;9.226;2022-12-18T08:39:42;-9.20;1.00
13205;DHT22;6667;52.634;9.226;2022-12-18T08:42:08;-9.10;1.00
13205;DHT22;6667;52.634;9.226;2022-12-18T08:44:52;-9.10;1.00
13205;DHT22;6667;52.634;9.226;2022-12-18T08:47:19;-9.00;1.00
13205;DHT22;6667;52.634;9.226;2022-12-18T08:49:46;-9.00;49.70
13205;DHT22;6667;52.634;9.226;2022-12-18T08:52:14;-8.80;1.00
13205;DHT22;6667;52.634;9.226;2022-12-18T08:54:41;-8.80;1.00
13205;DHT22;6667;52.634;9.226;2022-12-18T08:57:08;-8.60;1.00
13205;DHT22;6667;52.634;9.226;2022-12-18T08:59:34;-8.50;1.00
13205;DHT22;6667;52.634;9.226;2022-12-18T09:02:01;-8.30;99.90
13205;DHT22;6667;52.634;9.226;2022-12-18T09:04:28;-8.10;99.90
13205;DHT22;6667;52.634;9.226;2022-12-18T09:06:54;-7.90;1.00
13205;DHT22;6667;52.634;9.226;2022-12-18T09:09:22;-7.80;99.90
13205;DHT22;6667;52.634;9.226;2022-12-18T09:11:49;-7.60;1.00
13205;DHT22;6667;52.634;9.226;2022-12-18T09:14:16;-7.30;99.90
13205;DHT22;6667;52.634;9.226;2022-12-18T09:16:42;-7.00;99.90
13205;DHT22;6667;52.634;9.226;2022-12-18T09:19:09;-6.90;1.00
13205;DHT22;6667;52.634;9.226;2022-12-18T09:21:36;-6.80;1.00
13205;DHT22;6667;52.634;9.226;2022-12-18T09:24:04;-6.70;1.00
13205;DHT22;6667;52.634;9.226;2022-12-18T09:26:33;-6.60;1.00
13205;DHT22;6667;52.634;9.226;2022-12-18T09:28:59;-6.40;1.00
13205;DHT22;6667;52.634;9.226;2022-12-18T09:31:26;-6.20;25.60
13205;DHT22;6667;52.634;9.226;2022-12-18T09:33:54;-6.00;20.30
13205;DHT22;6667;52.634;9.226;2022-12-18T09:36:21;-5.80;99.90
13205;DHT22;6667;52.634;9.226;2022-12-18T09:38:48;-5.50;1.00
13205;DHT22;6667;52.634;9.226;2022-12-18T09:41:36;-5.10;99.90
13205;DHT22;6667;52.634;9.226;2022-12-18T09:44:14;-4.80;1.00
13205;DHT22;6667;52.634;9.226;2022-12-18T09:46:45;-4.60;99.90
13205;DHT22;6667;52.634;9.226;2022-12-18T09:49:18;-4.40;96.00
13205;DHT22;6667;52.634;9.226;2022-12-18T09:51:50;-4.20;1.00
13205;DHT22;6667;52.634;9.226;2022-12-18T09:54:22;-4.20;99.90
13205;DHT22;6667;52.634;9.226;2022-12-18T09:56:52;-4.10;7.90
13205;DHT22;6667;52.634;9.226;2022-12-18T09:59:23;-4.00;14.50
13205;DHT22;6667;52.634;9.226;2022-12-18T10:01:50;-4.00;1.00
13205;DHT22;6667;52.634;9.226;2022-12-18T10:04:17;-3.80;1.00
13205;DHT22;6667;52.634;9.226;2022-12-18T10:06:50;-3.70;1.00
13205;DHT22;6667;52.634;9.226;2022-12-18T10:09:24;-3.50;1.00
13205;DHT22;6667;52.634;9.226;2022-12-18T10:11:59;-3.20;1.00
13205;DHT22;6667;52.634;9.226;2022-12-18T10:14:33;-3.10;99.90
13205;DHT22;6667;52.634;9.226;2022-12-18T10:17:09;-2.90;1.00
13205;DHT22;6667;52.634;9.226;2022-12-18T10:19:40;-2.90;99.90
13205;DHT22;6667;52.634;9.226;2022-12-18T10:22:21;-2.90;99.90
13205;DHT22;6667;52.634;9.226;2022-12-18T10:24:55;-2.80;99.90
13205;DHT22;6667;52.634;9.226;2022-12-18T10:27:28;-2.80;99.90
13205;DHT22;6667;52.634;9.226;2022-12-18T10:29:56;-2.60;77.30
13205;DHT22;6667;52.634;9.226;2022-12-18T10:32:26;-2.50;99.90
13205;DHT22;6667;52.634;9.226;2022-12-18T10:34:54;-2.30;59.80
13205;DHT22;6667;52.634;9.226;2022-12-18T10:37:22;-2.20;1.00
13205;DHT22;6667;52.634;9.226;2022-12-18T10:40:08;-2.10;1.00
13205;DHT22;6667;52.634;9.226;2022-12-18T10:42:37;-2.10;1.00
13205;DHT22;6667;52.634;9.226;2022-12-18T10:45:09;-2.00;1.00
13205;DHT22;6667;52.634;9.226;2022-12-18T10:47:37;-1.90;1.00
13205;DHT22;6667;52.634;9.226;2022-12-18T10:50:19;-2.00;1.00
13205;DHT22;6667;52.634;9.226;2022-12-18T10:52:54;-1.90;1.00
13205;DHT22;6667;52.634;9.226;2022-12-18T10:55:22;-1.80;99.90
13205;DHT22;6667;52.634;9.226;2022-12-18T10:57:51;-1.60;1.00
13205;DHT22;6667;52.634;9.226;2022-12-18T11:00:27;-1.70;1.00
13205;DHT22;6667;52.634;9.226;2022-12-18T11:02:54;-1.80;1.00
13205;DHT22;6667;52.634;9.226;2022-12-18T11:05:26;-1.70;1.00
13205;DHT22;6667;52.634;9.226;2022-12-18T11:07:53;-1.70;1.00
13205;DHT22;6667;52.634;9.226;2022-12-18T11:10:22;-1.50;1.00
13205;DHT22;6667;52.634;9.226;2022-12-18T11:12:51;-1.60;1.00
13205;DHT22;6667;52.634;9.226;2022-12-18T11:15:20;-1.40;1.00
13205;DHT22;6667;52.634;9.226;2022-12-18T11:17:48;-1.40;1.00
13205;DHT22;6667;52.634;9.226;2022-12-18T11:20:29;-1.40;1.00
13205;DHT22;6667;52.634;9.226;2022-12-18T11:22:58;-1.20;1.00
13205;DHT22;6667;52.634;9.226;2022-12-18T11:25:26;-1.10;1.00
13205;DHT22;6667;52.634;9.226;2022-12-18T11:27:55;-1.10;1.00
13205;DHT22;6667;52.634;9.226;2022-12-18T11:30:25;-1.10;1.00
13205;DHT22;6667;52.634;9.226;2022-12-18T11:32:54;-0.90;1.00
13205;DHT22;6667;52.634;9.226;2022-12-18T11:35:38;-0.90;1.00
13205;DHT22;6667;52.634;9.226;2022-12-18T11:38:13;-0.80;1.00
13205;DHT22;6667;52.634;9.226;2022-12-18T11:40:45;-0.70;1.00
13205;DHT22;6667;52.634;9.226;2022-12-18T11:43:17;-0.70;1.00
13205;DHT22;6667;52.634;9.226;2022-12-18T11:45:51;-0.60;1.00
13205;DHT22;6667;52.634;9.226;2022-12-18T11:48:22;-0.50;1.00
13205;DHT22;6667;52.634;9.226;2022-12-18T11:50:51;-0.50;99.90
13205;DHT22;6667;52.634;9.226;2022-12-18T11:53:19;-0.50;99.90
13205;DHT22;6667;52.634;9.226;2022-12-18T11:56:03;-0.50;99.90
13205;DHT22;6667;52.634;9.226;2022-12-18T11:58:44;-0.50;99.90
13205;DHT22;6667;52.634;9.226;2022-12-18T12:01:22;-0.50;99.90
13205;DHT22;6667;52.634;9.226;2022-12-18T12:04:09;-0.50;99.90
13205;DHT22;6667;52.634;9.226;2022-12-18T12:06:45;-0.50;99.90
13205;DHT22;6667;52.634;9.226;2022-12-18T12:09:19;-0.40;99.90
13205;DHT22;6667;52.634;9.226;2022-12-18T12:11:56;-0.40;99.90
13205;DHT22;6667;52.634;9.226;2022-12-18T12:14:37;-0.40;99.90
13205;DHT22;6667;52.634;9.226;2022-12-18T12:17:14;-0.40;99.90
13205;DHT22;6667;52.634;9.226;2022-12-18T12:19:50;-0.40;99.90
13205;DHT22;6667;52.634;9.226;2022-12-18T12:22:26;-0.40;99.90
13205;DHT22;6667;52.634;9.226;2022-12-18T12:25:08;-0.50;99.90
13205;DHT22;6667;52.634;9.226;2022-12-18T12:27:47;-0.40;99.90
13205;DHT22;6667;52.634;9.226;2022-12-18T12:30:21;-0.50;99.90
13205;DHT22;6667;52.634;9.226;2022-12-18T12:33:02;-0.40;99.90
13205;DHT22;6667;52.634;9.226;2022-12-18T12:35:40;-0.40;99.90
13205;DHT22;6667;52.634;9.226;2022-12-18T12:38:12;-0.40;99.90
13205;DHT22;6667;52.634;9.226;2022-12-18T12:40:43;-0.40;99.90
13205;DHT22;6667;52.634;9.226;2022-12-18T12:43:22;-0.40;99.90
13205;DHT22;6667;52.634;9.226;2022-12-18T12:45:54;-0.40;99.90
13205;DHT22;6667;52.634;9.226;2022-12-18T12:48:31;-0.40;99.90
13205;DHT22;6667;52.634;9.226;2022-12-18T12:51:02;-0.40;99.90
13205;DHT22;6667;52.634;9.226;2022-12-18T12:53:34;-0.40;99.90
13205;DHT22;6667;52.634;9.226;2022-12-18T12:56:02;-0.40;99.90
13205;DHT22;6667;52.634;9.226;2022-12-18T12:58:36;-0.40;99.90
13205;DHT22;6667;52.634;9.226;2022-12-18T13:01:16;-0.40;99.90
13205;DHT22;6667;52.634;9.226;2022-12-18T13:03:50;-0.30;99.90
13205;DHT22;6667;52.634;9.226;2022-12-18T13:06:26;-0.40;99.90
13205;DHT22;6667;52.634;9.226;2022-12-18T13:08:57;-0.40;99.90
13205;DHT22;6667;52.634;9.226;2022-12-18T13:11:35;-0.40;99.90
13205;DHT22;6667;52.634;9.226;2022-12-18T13:14:26;-0.40;99.90
13205;DHT22;6667;52.634;9.226;2022-12-18T13:17:16;-0.40;99.90
13205;DHT22;6667;52.634;9.226;2022-12-18T13:19:43;-0.40;99.90
13205;DHT22;6667;52.634;9.226;2022-12-18T13:22:21;-0.40;99.90
13205;DHT22;6667;52.634;9.226;2022-12-18T13:24:49;-0.50;99.90
13205;DHT22;6667;52.634;9.226;2022-12-18T13:28:03;-0.50;99.90
13205;DHT22;6667;52.634;9.226;2022-12-18T13:30:48;-0.50;99.90
13205;DHT22;6667;52.634;9.226;2022-12-18T13:33:50;-0.50;99.90
13205;DHT22;6667;52.634;9.226;2022-12-18T13:36:30;-0.50;99.90
13205;DHT22;6667;52.634;9.226;2022-12-18T13:39:20;-0.60;99.90
13205;DHT22;6667;52.634;9.226;2022-12-18T13:41:49;-0.60;99.90
13205;DHT22;6667;52.634;9.226;2022-12-18T13:44:30;-0.60;99.90
13205;DHT22;6667;52.634;9.226;2022-12-18T13:46:58;-0.70;99.90
13205;DHT22;6667;52.634;9.226;2022-12-18T13:49:32;-0.60;99.90
13205;DHT22;6667;52.634;9.226;2022-12-18T13:52:02;-0.60;99.90
13205;DHT22;6667;52.634;9.226;2022-12-18T13:54:33;-0.70;99.90
13205;DHT22;6667;52.634;9.226;2022-12-18T13:57:01;-0.70;99.90
13205;DHT22;6667;52.634;9.226;2022-12-18T13:59:34;-0.70;99.90
13205;DHT22;6667;52.634;9.226;2022-12-18T14:02:13;-0.70;99.90
13205;DHT22;6667;52.634;9.226;2022-12-18T14:04:45;-0.70;99.90
13205;DHT22;6667;52.634;9.226;2022-12-18T14:07:14;-0.70;99.90
13205;DHT22;6667;52.634;9.226;2022-12-18T14:09:44;-0.80;99.90
13205;DHT22;6667;52.634;9.226;2022-12-18T14:12:16;-0.80;99.90
13205;DHT22;6667;52.634;9.226;2022-12-18T14:15:01;-0.80;99.90
13205;DHT22;6667;52.634;9.226;2022-12-18T14:17:28;-0.80;99.90
13205;DHT22;6667;52.634;9.226;2022-12-18T14:19:58;-0.90;99.90
13205;DHT22;6667;52.634;9.226;2022-12-18T14:22:26;-0.90;99.90
13205;DHT22;6667;52.634;9.226;2022-12-18T14:25:15;-0.90;99.90
13205;DHT22;6667;52.634;9.226;2022-12-18T14:27:43;-0.90;99.90
13205;DHT22;6667;52.634;9.226;2022-12-18T14:30:28;-0.90;99.90
13205;DHT22;6667;52.634;9.226;2022-12-18T14:33:02;-0.90;99.90
13205;DHT22;6667;52.634;9.226;2022-12-18T14:35:32;-0.90;99.90
13205;DHT22;6667;52.634;9.226;2022-12-18T14:38:21;-0.90;99.90
13205;DHT22;6667;52.634;9.226;2022-12-18T14:40:51;-0.90;99.90
13205;DHT22;6667;52.634;9.226;2022-12-18T14:43:18;-1.00;99.90
13205;DHT22;6667;52.634;9.226;2022-12-18T14:45:45;-1.00;99.90
13205;DHT22;6667;52.634;9.226;2022-12-18T14:48:16;-1.00;99.90
13205;DHT22;6667;52.634;9.226;2022-12-18T14:50:53;-1.00;99.90
13205;DHT22;6667;52.634;9.226;2022-12-18T14:53:23;-1.00;99.90
13205;DHT22;6667;52.634;9.226;2022-12-18T14:55:54;-1.10;99.90
13205;DHT22;6667;52.634;9.226;2022-12-18T14:58:22;-1.10;99.90
13205;DHT22;6667;52.634;9.226;2022-12-18T15:00:48;-1.10;99.90
13205;DHT22;6667;52.634;9.226;2022-12-18T15:03:18;-1.20;99.90
13205;DHT22;6667;52.634;9.226;2022-12-18T15:05:47;-1.20;99.90
13205;DHT22;6667;52.634;9.226;2022-12-18T15:08:28;-1.20;99.90
13205;DHT22;6667;52.634;9.226;2022-12-18T15:10:55;-1.20;99.90
13205;DHT22;6667;52.634;9.226;2022-12-18T15:13:24;-1.30;99.90
13205;DHT22;6667;52.634;9.226;2022-12-18T15:15:52;-1.30;99.90
13205;DHT22;6667;52.634;9.226;2022-12-18T15:18:20;-1.40;99.90
13205;DHT22;6667;52.634;9.226;2022-12-18T15:20:51;-1.40;99.90
13205;DHT22;6667;52.634;9.226;2022-12-18T15:23:19;-1.40;99.90
13205;DHT22;6667;52.634;9.226;2022-12-18T15:25:48;-1.50;99.90
13205;DHT22;6667;52.634;9.226;2022-12-18T15:28:23;-1.40;99.90
13205;DHT22;6667;52.634;9.226;2022-12-18T15:31:02;-1.50;99.90
13205;DHT22;6667;52.634;9.226;2022-12-18T15:33:32;-1.60;99.90
13205;DHT22;6667;52.634;9.226;2022-12-18T15:36:02;-1.50;99.90
13205;DHT22;6667;52.634;9.226;2022-12-18T15:38:29;-1.60;99.90
13205;DHT22;6667;52.634;9.226;2022-12-18T15:40:56;-1.60;99.90
13205;DHT22;6667;52.634;9.226;2022-12-18T15:43:24;-1.60;99.90
13205;DHT22;6667;52.634;9.226;2022-12-18T15:46:00;-1.70;99.90
13205;DHT22;6667;52.634;9.226;2022-12-18T15:48:27;-1.70;99.90
13205;DHT22;6667;52.634;9.226;2022-12-18T15:50:55;-1.80;99.90
13205;DHT22;6667;52.634;9.226;2022-12-18T15:53:26;-1.80;99.90
13205;DHT22;6667;52.634;9.226;2022-12-18T15:55:54;-1.70;99.90
13205;DHT22;6667;52.634;9.226;2022-12-18T15:58:38;-1.70;99.90
13205;DHT22;6667;52.634;9.226;2022-12-18T16:01:05;-1.70;99.90
13205;DHT22;6667;52.634;9.226;2022-12-18T16:03:31;-1.80;99.90
13205;DHT22;6667;52.634;9.226;2022-12-18T16:05:58;-1.80;99.90
13205;DHT22;6667;52.634;9.226;2022-12-18T16:08:28;-1.70;99.90
13205;DHT22;6667;52.634;9.226;2022-12-18T16:10:56;-1.80;99.90
13205;DHT22;6667;52.634;9.226;2022-12-18T16:13:23;-1.80;99.90
13205;DHT22;6667;52.634;9.226;2022-12-18T16:15:49;-1.70;99.90
13205;DHT22;6667;52.634;9.226;2022-12-18T16:18:16;-1.70;99.90
13205;DHT22;6667;52.634;9.226;2022-12-18T16:20:43;-1.70;99.90
13205;DHT22;6667;52.634;9.226;2022-12-18T16:23:09;-1.70;99.90
13205;DHT22;6667;52.634;9.226;2022-12-18T16:25:37;-1.70;99.90
13205;DHT22;6667;52.634;9.226;2022-12-18T16:28:04;-1.70;99.90
13205;DHT22;6667;52.634;9.226;2022-12-18T16:30:31;-1.70;99.90
13205;DHT22;6667;52.634;9.226;2022-12-18T16:32:58;-1.70;99.90
13205;DHT22;6667;52.634;9.226;2022-12-18T16:35:26;-1.70;99.90
13205;DHT22;6667;52.634;9.226;2022-12-18T16:37:53;-1.80;99.90
13205;DHT22;6667;52.634;9.226;2022-12-18T16:40:20;-1.70;99.90
13205;DHT22;6667;52.634;9.226;2022-12-18T16:42:48;-1.70;99.90
13205;DHT22;6667;52.634;9.226;2022-12-18T16:45:17;-1.70;99.90
13205;DHT22;6667;52.634;9.226;2022-12-18T16:47:44;-1.70;99.90
13205;DHT22;6667;52.634;9.226;2022-12-18T16:50:11;-1.80;99.90
13205;DHT22;6667;52.634;9.226;2022-12-18T16:52:38;-1.80;99.90
13205;DHT22;6667;52.634;9.226;2022-12-18T16:55:05;-1.70;99.90
13205;DHT22;6667;52.634;9.226;2022-12-18T16:57:32;-1.70;99.90
13205;DHT22;6667;52.634;9.226;2022-12-18T17:00:00;-1.70;99.90
13205;DHT22;6667;52.634;9.226;2022-12-18T17:02:27;-1.70;99.90
13205;DHT22;6667;52.634;9.226;2022-12-18T17:04:55;-1.70;99.90
13205;DHT22;6667;52.634;9.226;2022-12-18T17:07:22;-1.70;99.90
13205;DHT22;6667;52.634;9.226;2022-12-18T17:09:49;-1.60;99.90
13205;DHT22;6667;52.634;9.226;2022-12-18T17:12:18;-1.60;99.90
13205;DHT22;6667;52.634;9.226;2022-12-18T17:14:45;-1.50;99.90
13205;DHT22;6667;52.634;9.226;2022-12-18T17:17:13;-1.50;99.90
13205;DHT22;6667;52.634;9.226;2022-12-18T17:19:39;-1.60;99.90
13205;DHT22;6667;52.634;9.226;2022-12-18T17:22:06;-1.60;99.90
13205;DHT22;6667;52.634;9.226;2022-12-18T17:24:34;-1.60;99.90
13205;DHT22;6667;52.634;9.226;2022-12-18T17:27:00;-1.50;99.90
13205;DHT22;6667;52.634;9.226;2022-12-18T17:29:27;-1.50;99.90
13205;DHT22;6667;52.634;9.226;2022-12-18T17:31:54;-1.50;99.90
13205;DHT22;6667;52.634;9.226;2022-12-18T17:34:22;-1.40;99.90
13205;DHT22;6667;52.634;9.226;2022-12-18T17:36:48;-1.30;99.90
13205;DHT22;6667;52.634;9.226;2022-12-18T17:39:17;-1.30;99.90
13205;DHT22;6667;52.634;9.226;2022-12-18T17:41:45;-1.30;99.90
13205;DHT22;6667;52.634;9.226;2022-12-18T17:44:12;-1.30;99.90
13205;DHT22;6667;52.634;9.226;2022-12-18T17:46:39;-1.30;99.90
13205;DHT22;6667;52.634;9.226;2022-12-18T17:49:06;-1.30;99.90
13205;DHT22;6667;52.634;9.226;2022-12-18T17:51:34;-1.30;99.90
13205;DHT22;6667;52.634;9.226;2022-12-18T17:54:00;-1.30;99.90
13205;DHT22;6667;52.634;9.226;2022-12-18T17:56:27;-1.30;99.90
13205;DHT22;6667;52.634;9.226;2022-12-18T17:58:54;-1.40;99.90
13205;DHT22;6667;52.634;9.226;2022-12-18T18:01:23;-1.30;99.90
13205;DHT22;6667;52.634;9.226;2022-12-18T18:03:50;-1.30;99.90
13205;DHT22;6667;52.634;9.226;2022-12-18T18:06:17;-1.40;99.90
13205;DHT22;6667;52.634;9.226;2022-12-18T18:08:45;-1.40;99.90
13205;DHT22;6667;52.634;9.226;2022-12-18T18:11:13;-1.30;99.90
13205;DHT22;6667;52.634;9.226;2022-12-18T18:13:58;-1.40;99.90
13205;DHT22;6667;52.634;9.226;2022-12-18T18:16:30;-1.30;99.90
13205;DHT22;6667;52.634;9.226;2022-12-18T18:18:58;-1.30;99.90
13205;DHT22;6667;52.634;9.226;2022-12-18T18:21:25;-1.30;99.90
13205;DHT22;6667;52.634;9.226;2022-12-18T18:23:53;-1.30;99.90
13205;DHT22;6667;52.634;9.226;2022-12-18T18:26:20;-1.30;99.90
13205;DHT22;6667;52.634;9.226;2022-12-18T18:28:47;-1.30;99.90
13205;DHT22;6667;52.634;9.226;2022-12-18T18:31:14;-1.20;99.90
13205;DHT22;6667;52.634;9.226;2022-12-18T18:33:41;-1.20;99.90
13205;DHT22;6667;52.634;9.226;2022-12-18T18:36:09;-1.20;99.90
13205;DHT22;6667;52.634;9.226;2022-12-18T18:38:36;-1.20;99.90
13205;DHT22;6667;52.634;9.226;2022-12-18T18:41:05;-1.20;99.90
13205;DHT22;6667;52.634;9.226;2022-12-18T18:43:33;-1.10;99.90
13205;DHT22;6667;52.634;9.226;2022-12-18T18:46:01;-1.10;99.90
13205;DHT22;6667;52.634;9.226;2022-12-18T18:48:31;-1.00;99.90
13205;DHT22;6667;52.634;9.226;2022-12-18T18:50:59;-1.00;99.90
13205;DHT22;6667;52.634;9.226;2022-12-18T18:53:27;-1.00;99.90
13205;DHT22;6667;52.634;9.226;2022-12-18T18:55:56;-1.00;99.90
13205;DHT22;6667;52.634;9.226;2022-12-18T18:58:24;-1.00;99.90
13205;DHT22;6667;52.634;9.226;2022-12-18T19:00:55;-0.90;99.90
13205;DHT22;6667;52.634;9.226;2022-12-18T19:03:22;-0.80;99.90
13205;DHT22;6667;52.634;9.226;2022-12-18T19:05:51;-0.80;99.90
13205;DHT22;6667;52.634;9.226;2022-12-18T19:08:19;-0.90;99.90
13205;DHT22;6667;52.634;9.226;2022-12-18T19:10:46;-0.90;99.90
13205;DHT22;6667;52.634;9.226;2022-12-18T19:13:13;-0.80;99.90
13205;DHT22;6667;52.634;9.226;2022-12-18T19:15:52;-0.80;99.90
13205;DHT22;6667;52.634;9.226;2022-12-18T19:18:19;-0.80;99.90
13205;DHT22;6667;52.634;9.226;2022-12-18T19:20:54;-0.70;99.90
13205;DHT22;6667;52.634;9.226;2022-12-18T19:23:21;-0.60;99.90
13205;DHT22;6667;52.634;9.226;2022-12-18T19:25:47;-0.60;99.90
13205;DHT22;6667;52.634;9.226;2022-12-18T19:28:14;-0.60;99.90
13205;DHT22;6667;52.634;9.226;2022-12-18T19:30:41;-0.50;99.90
13205;DHT22;6667;52.634;9.226;2022-12-18T19:33:09;-0.60;99.90
13205;DHT22;6667;52.634;9.226;2022-12-18T19:35:36;-0.50;99.90
13205;DHT22;6667;52.634;9.226;2022-12-18T19:38:03;-0.50;99.90
13205;DHT22;6667;52.634;9.226;2022-12-18T19:40:29;-0.40;99.90
13205;DHT22;6667;52.634;9.226;2022-12-18T19:42:56;-0.50;99.90
13205;DHT22;6667;52.634;9.226;2022-12-18T19:45:23;-0.50;99.90
13205;DHT22;6667;52.634;9.226;2022-12-18T19:47:49;-0.50;99.90
13205;DHT22;6667;52.634;9.226;2022-12-18T19:50:17;-0.40;99.90
13205;DHT22;6667;52.634;9.226;2022-12-18T19:52:44;-0.30;99.90
13205;DHT22;6667;52.634;9.226;2022-12-18T19:55:11;-0.40;99.90
13205;DHT22;6667;52.634;9.226;2022-12-18T19:57:37;-0.40;99.90
13205;DHT22;6667;52.634;9.226;2022-12-18T20:00:05;-0.40;99.90
13205;DHT22;6667;52.634;9.226;2022-12-18T20:02:32;-0.40;99.90
13205;DHT22;6667;52.634;9.226;2022-12-18T20:05:01;-0.40;99.90
13205;DHT22;6667;52.634;9.226;2022-12-18T20:07:30;-0.50;99.90
13205;DHT22;6667;52.634;9.226;2022-12-18T20:09:56;-0.40;99.90
13205;DHT22;6667;52.634;9.226;2022-12-18T20:12:23;-0.30;99.90
13205;DHT22;6667;52.634;9.226;2022-12-18T20:14:50;-0.30;99.90
13205;DHT22;6667;52.634;9.226;2022-12-18T20:17:17;-0.30;99.90
13205;DHT22;6667;52.634;9.226;2022-12-18T20:19:44;-0.20;99.90
13205;DHT22;6667;52.634;9.226;2022-12-18T20:22:11;-0.20;99.90
13205;DHT22;6667;52.634;9.226;2022-12-18T20:24:39;-0.20;99.90
13205;DHT22;6667;52.634;9.226;2022-12-18T20:27:06;-0.30;99.90
13205;DHT22;6667;52.634;9.226;2022-12-18T20:29:33;-0.30;99.90
13205;DHT22;6667;52.634;9.226;2022-12-18T20:31:59;-0.30;99.90
13205;DHT22;6667;52.634;9.226;2022-12-18T20:34:26;-0.30;99.90
13205;DHT22;6667;52.634;9.226;2022-12-18T20:36:53;-0.30;99.90
13205;DHT22;6667;52.634;9.226;2022-12-18T20:39:20;-0.30;99.90
13205;DHT22;6667;52.634;9.226;2022-12-18T20:41:48;-0.30;99.90
13205;DHT22;6667;52.634;9.226;2022-12-18T20:44:16;-0.40;99.90
13205;DHT22;6667;52.634;9.226;2022-12-18T20:46:43;-0.30;99.90
13205;DHT22;6667;52.634;9.226;2022-12-18T20:49:09;-0.40;99.90
13205;DHT22;6667;52.634;9.226;2022-12-18T20:51:36;-0.40;99.90
13205;DHT22;6667;52.634;9.226;2022-12-18T20:54:03;-0.40;99.90
13205;DHT22;6667;52.634;9.226;2022-12-18T20:56:30;-0.40;99.90
13205;DHT22;6667;52.634;9.226;2022-12-18T20:58:59;-0.40;99.90
13205;DHT22;6667;52.634;9.226;2022-12-18T21:01:28;-0.40;99.90
13205;DHT22;6667;52.634;9.226;2022-12-18T21:03:54;-0.30;99.90
13205;DHT22;6667;52.634;9.226;2022-12-18T21:06:23;-0.30;99.90
13205;DHT22;6667;52.634;9.226;2022-12-18T21:08:50;-0.30;99.90
13205;DHT22;6667;52.634;9.226;2022-12-18T21:11:25;-0.30;99.90
13205;DHT22;6667;52.634;9.226;2022-12-18T21:14:13;-0.30;99.90
13205;DHT22;6667;52.634;9.226;2022-12-18T21:16:41;-0.30;99.90
13205;DHT22;6667;52.634;9.226;2022-12-18T21:19:09;-0.20;99.90
13205;DHT22;6667;52.634;9.226;2022-12-18T21:21:37;-0.10;99.90
13205;DHT22;6667;52.634;9.226;2022-12-18T21:24:05;0.00;99.90
13205;DHT22;6667;52.634;9.226;2022-12-18T21:26:32;-0.10;99.90
13205;DHT22;6667;52.634;9.226;2022-12-18T21:29:00;-0.10;99.90
13205;DHT22;6667;52.634;9.226;2022-12-18T21:31:31;-0.10;99.90
13205;DHT22;6667;52.634;9.226;2022-12-18T21:33:58;-0.10;99.90
13205;DHT22;6667;52.634;9.226;2022-12-18T21:36:25;0.00;99.90
13205;DHT22;6667;52.634;9.226;2022-12-18T21:38:52;0.00;99.90
13205;DHT22;6667;52.634;9.226;2022-12-18T21:41:19;0.00;99.90
13205;DHT22;6667;52.634;9.226;2022-12-18T21:44:04;0.10;99.90
13205;DHT22;6667;52.634;9.226;2022-12-18T21:46:34;0.10;99.90
13205;DHT22;6667;52.634;9.226;2022-12-18T21:49:03;0.20;99.90
13205;DHT22;6667;52.634;9.226;2022-12-18T21:51:30;0.20;99.90
13205;DHT22;6667;52.634;9.226;2022-12-18T21:53:57;0.10;99.90
13205;DHT22;6667;52.634;9.226;2022-12-18T21:56:24;0.20;99.90
13205;DHT22;6667;52.634;9.226;2022-12-18T21:59:07;0.20;99.90
13205;DHT22;6667;52.634;9.226;2022-12-18T22:01:35;0.20;99.90
13205;DHT22;6667;52.634;9.226;2022-12-18T22:04:02;0.20;99.90
13205;DHT22;6667;52.634;9.226;2022-12-18T22:06:29;0.20;99.90
13205;DHT22;6667;52.634;9.226;2022-12-18T22:08:55;0.20;99.90
